Time;durP1;ratioP1;P1;durP2;ratioP2;P2;SDS_P1;SDS_P2;PMS_P1;PMS_P2;Temp;Humidity;BMP_temperature;BMP_pressure;BME280_temperature;BME280_humidity;BME280_pressure;Samples;Min_cycle;Max_cycle;Signal;HPM_P1;HPM_P2
2023/01/25 00:01:26;;;;;;;;;;;;;;;20.46;46.00;103365.00;5051111;28;3116;-58
2023/01/25 00:03:53;;;;;;;;;;;;;;;20.45;46.28;103357.69;5055380;28;3163;-58
2023/01/25 00:06:19;;;;;;;;;;;;;;;20.46;45.98;103352.72;5049740;28;2895;-58
2023/01/25 00:08:49;;;;;;;;;;;;;;;20.44;46.17;103347.53;5054219;28;2436;-58
2023/01/25 00:11:15;;;;;;;;;;;;;;;20.44;45.92;103335.28;5049093;28;2919;-58
2023/01/25 00:13:42;;;;;;;;;;;;;;;20.44;46.15;103338.91;5051563;28;2954;-59
2023/01/25 00:16:08;;;;;;;;;;;;;;;20.45;45.96;103328.16;5056951;28;1593;-58
2023/01/25 00:18:35;;;;;;;;;;;;;;;20.45;45.98;103320.28;5050395;28;2908;-58
2023/01/25 00:21:14;;;;;;;;;;;;;;;20.46;46.09;103323.94;5054345;28;2815;-58
2023/01/25 00:23:40;;;;;;;;;;;;;;;20.47;46.07;103320.44;5050711;28;2823;-58
2023/01/25 00:26:06;;;;;;;;;;;;;;;20.47;45.89;103323.31;5054137;28;2778;-59
2023/01/25 00:28:33;;;;;;;;;;;;;;;20.48;45.99;103318.34;5053202;28;2962;-58
2023/01/25 00:30:59;;;;;;;;;;;;;;;20.47;46.08;103308.94;5060155;28;1692;-58
2023/01/25 00:33:26;;;;;;;;;;;;;;;20.46;45.89;103307.41;5057589;28;2835;-58
2023/01/25 00:35:55;;;;;;;;;;;;;;;20.47;45.93;103296.66;5051237;28;2875;-58
2023/01/25 00:38:26;;;;;;;;;;;;;;;20.45;46.07;103291.50;5054977;28;2889;-58
2023/01/25 00:40:52;;;;;;;;;;;;;;;20.45;46.09;103276.34;5071831;28;2842;-58
2023/01/25 00:43:19;;;;;;;;;;;;;;;20.44;46.24;103275.59;5051398;28;2895;-58
2023/01/25 00:45:45;;;;;;;;;;;;;;;20.44;46.03;103274.84;5052689;28;3060;-57
2023/01/25 00:48:11;;;;;;;;;;;;;;;20.42;46.27;103258.16;5055211;28;1698;-58
2023/01/25 00:50:38;;;;;;;;;;;;;;;20.41;46.16;103245.13;5051354;28;2970;-59
2023/01/25 00:53:04;;;;;;;;;;;;;;;20.41;46.16;103242.25;5046369;28;2831;-58
2023/01/25 00:55:30;;;;;;;;;;;;;;;20.42;46.12;103243.75;5057277;28;2588;-59
2023/01/25 00:57:57;;;;;;;;;;;;;;;20.43;46.28;103238.75;5051384;28;2855;-58
2023/01/25 01:00:23;;;;;;;;;;;;;;;20.44;45.95;103234.53;5054237;28;2820;-58
2023/01/25 01:02:50;;;;;;;;;;;;;;;20.44;46.08;103231.66;5055825;28;2941;-58
2023/01/25 01:05:16;;;;;;;;;;;;;;;20.45;46.12;103242.56;5067759;28;2872;-58
2023/01/25 01:07:42;;;;;;;;;;;;;;;20.46;46.10;103231.84;5054650;28;2756;-58
2023/01/25 01:10:10;;;;;;;;;;;;;;;20.45;46.13;103236.81;5068505;28;2823;-58
2023/01/25 01:12:37;;;;;;;;;;;;;;;20.45;46.13;103242.56;5056555;28;2898;-58
2023/01/25 01:15:06;;;;;;;;;;;;;;;20.44;46.04;103249.69;5057930;28;1565;-58
2023/01/25 01:17:33;;;;;;;;;;;;;;;20.44;46.13;103246.06;5048909;28;2791;-58
2023/01/25 01:19:59;;;;;;;;;;;;;;;20.44;46.04;103249.69;5052780;28;2906;-58
2023/01/25 01:22:26;;;;;;;;;;;;;;;20.43;46.18;103256.81;5053622;28;2851;-58
2023/01/25 01:24:52;;;;;;;;;;;;;;;20.42;46.15;103258.16;5055459;28;2607;-58
2023/01/25 01:27:18;;;;;;;;;;;;;;;20.41;46.26;103253.75;5052344;28;2875;-58
2023/01/25 01:29:45;;;;;;;;;;;;;;;20.41;46.17;103247.22;5063866;28;1603;-58
2023/01/25 01:32:11;;;;;;;;;;;;;;;20.40;46.11;103237.81;5064014;28;2827;-58
2023/01/25 01:34:38;;;;;;;;;;;;;;;20.40;46.22;103240.69;5051016;28;2797;-58
2023/01/25 01:37:04;;;;;;;;;;;;;;;20.40;46.26;103243.56;5051615;28;2592;-58
2023/01/25 01:39:30;;;;;;;;;;;;;;;20.41;46.06;103242.25;5061424;28;2753;-58
2023/01/25 01:41:57;;;;;;;;;;;;;;;20.42;46.04;103240.13;5055364;28;2720;-59
2023/01/25 01:44:42;;;;;;;;;;;;;;;20.43;46.16;103239.53;5057137;28;2920;-58
2023/01/25 01:47:10;;;;;;;;;;;;;;;20.44;46.00;103235.28;5044557;28;2656;-58
2023/01/25 01:49:37;;;;;;;;;;;;;;;20.43;46.02;103228.03;5055737;28;2781;-58
2023/01/25 01:52:11;;;;;;;;;;;;;;;20.43;46.05;103228.03;5044867;28;2842;-58
2023/01/25 01:54:42;;;;;;;;;;;;;;;20.43;45.96;103225.16;5065915;28;2684;-58
2023/01/25 01:57:31;;;;;;;;;;;;;;;20.43;46.08;103227.25;5065701;28;2712;-58
2023/01/25 01:59:59;;;;;;;;;;;;;;;20.42;46.00;103225.72;5052665;28;2695;-58
2023/01/25 02:02:25;;;;;;;;;;;;;;;20.42;46.02;103232.25;5054548;28;2972;-58
2023/01/25 02:04:52;;;;;;;;;;;;;;;20.41;46.15;103232.81;5047763;28;2936;-58
2023/01/25 02:07:20;;;;;;;;;;;;;;;20.39;45.95;103227.69;5052896;28;2946;-58
2023/01/25 02:09:46;;;;;;;;;;;;;;;20.39;46.09;103230.56;5069061;28;2632;-58
2023/01/25 02:12:13;;;;;;;;;;;;;;;20.38;46.22;103226.13;5050469;28;2941;-58
2023/01/25 02:14:40;;;;;;;;;;;;;;;20.39;46.27;103233.44;5050830;28;2848;-58
2023/01/25 02:17:08;;;;;;;;;;;;;;;20.38;46.05;103220.38;5056243;28;1546;-58
2023/01/25 02:20:07;;;;;;;;;;;;;;;20.39;46.07;103227.69;5051273;28;2841;-58
2023/01/25 02:22:43;;;;;;;;;;;;;;;20.40;45.95;103223.44;5014659;28;2511;-58
2023/01/25 02:25:09;;;;;;;;;;;;;;;20.41;45.91;103219.22;5048730;28;2943;-58
2023/01/25 02:27:37;;;;;;;;;;;;;;;20.42;46.12;103219.97;5054359;28;2451;-58
2023/01/25 02:30:04;;;;;;;;;;;;;;;20.43;46.21;103219.38;5053256;28;2831;-58
2023/01/25 02:32:30;;;;;;;;;;;;;;;20.43;46.24;103216.50;5051975;28;2953;-58
2023/01/25 02:34:57;;;;;;;;;;;;;;;20.40;46.17;103206.16;5064780;28;3063;-58
2023/01/25 02:37:23;;;;;;;;;;;;;;;20.40;46.08;103211.91;5050279;28;2571;-59
2023/01/25 02:39:50;;;;;;;;;;;;;;;20.41;46.22;103209.78;5054142;28;2523;-58
2023/01/25 02:42:16;;;;;;;;;;;;;;;20.40;46.15;103202.53;5069602;28;3005;-58
2023/01/25 02:44:43;;;;;;;;;;;;;;;20.39;46.09;103204.66;5048312;28;3000;-58
2023/01/25 02:47:09;;;;;;;;;;;;;;;20.38;46.20;103194.47;5053249;28;2904;-58
2023/01/25 02:49:37;;;;;;;;;;;;;;;20.37;46.17;103195.84;5049581;28;2749;-58
2023/01/25 02:52:06;;;;;;;;;;;;;;;20.36;46.13;103202.94;5053631;28;2126;-58
2023/01/25 02:54:32;;;;;;;;;;;;;;;20.35;46.25;103198.56;5050114;28;2930;-58
2023/01/25 02:57:02;;;;;;;;;;;;;;;20.36;46.26;103199.31;5058702;28;2893;-58
2023/01/25 02:59:37;;;;;;;;;;;;;;;20.36;46.20;103200.06;5045508;28;2872;-58
2023/01/25 03:02:04;;;;;;;;;;;;;;;20.37;46.00;103195.84;5056154;28;2821;-58
2023/01/25 03:04:30;;;;;;;;;;;;;;;20.38;46.07;103196.59;5058938;28;2816;-58
2023/01/25 03:06:57;;;;;;;;;;;;;;;20.39;45.94;103198.91;5071645;28;2871;-58
2023/01/25 03:09:26;;;;;;;;;;;;;;;20.39;46.13;103187.38;5055723;28;2815;-58
2023/01/25 03:11:52;;;;;;;;;;;;;;;20.39;45.96;103184.50;5064144;28;2752;-58
2023/01/25 03:14:20;;;;;;;;;;;;;;;20.40;45.94;103188.13;5065318;28;1716;-58
2023/01/25 03:16:48;;;;;;;;;;;;;;;20.39;46.03;103190.25;5072271;28;2369;-58
2023/01/25 03:19:17;;;;;;;;;;;;;;;20.39;46.05;103181.63;5068175;28;2910;-59
2023/01/25 03:21:43;;;;;;;;;;;;;;;20.38;46.13;103180.09;5056843;28;2655;-58
2023/01/25 03:24:10;;;;;;;;;;;;;;;20.38;46.05;103176.47;5063124;28;2763;-58
2023/01/25 03:29:35;;;;;;;;;;;;;;;20.35;46.09;103169.78;5062647;28;2629;-58
2023/01/25 03:32:04;;;;;;;;;;;;;;;20.35;46.09;103169.03;5052746;28;2832;-58
2023/01/25 03:34:31;;;;;;;;;;;;;;;20.33;46.24;103166.72;5054744;28;2577;-59
2023/01/25 03:36:58;;;;;;;;;;;;;;;20.33;46.24;103166.72;5071981;28;1560;-58
2023/01/25 03:39:24;;;;;;;;;;;;;;;20.31;46.34;103169.44;5059509;28;2875;-58
2023/01/25 03:41:51;;;;;;;;;;;;;;;20.30;46.32;103168.69;5074257;28;2908;-59
2023/01/25 03:44:17;;;;;;;;;;;;;;;20.31;46.18;103163.69;5066249;28;1743;-58
2023/01/25 03:46:45;;;;;;;;;;;;;;;20.30;46.33;103162.91;5055830;28;2830;-58
2023/01/25 03:49:12;;;;;;;;;;;;;;;20.33;46.01;103166.72;5051688;28;2800;-59
2023/01/25 03:51:38;;;;;;;;;;;;;;;20.34;46.07;103156.75;5057105;28;2859;-58
2023/01/25 03:54:07;;;;;;;;;;;;;;;20.36;46.20;103154.03;5051969;28;2532;-58
2023/01/25 03:56:34;;;;;;;;;;;;;;;20.37;46.02;103155.56;5056528;28;2704;-59
2023/01/25 03:59:09;;;;;;;;;;;;;;;20.38;46.00;103150.56;5068057;28;2852;-58
2023/01/25 04:01:35;;;;;;;;;;;;;;;20.40;46.01;103142.09;5065324;28;1672;-58
2023/01/25 04:04:01;;;;;;;;;;;;;;;20.41;45.99;103137.84;5061330;28;2832;-58
2023/01/25 04:06:28;;;;;;;;;;;;;;;20.42;45.90;103137.25;5064364;28;1914;-58
2023/01/25 04:08:55;;;;;;;;;;;;;;;20.42;45.97;103134.38;5052332;28;2938;-58
2023/01/25 04:11:23;;;;;;;;;;;;;;;20.42;45.91;103128.63;5054428;28;2926;-59
2023/01/25 04:13:50;;;;;;;;;;;;;;;20.43;45.99;103130.16;5050126;28;2606;-58
2023/01/25 04:16:19;;;;;;;;;;;;;;;20.43;45.96;103130.16;5077004;28;2821;-59
2023/01/25 04:18:59;;;;;;;;;;;;;;;20.42;45.95;103117.13;5049650;28;3099;-58
2023/01/25 04:21:28;;;;;;;;;;;;;;;20.42;46.03;103116.38;5067602;28;2897;-58
2023/01/25 04:23:54;;;;;;;;;;;;;;;20.42;46.19;103110.59;5053294;28;2871;-59
2023/01/25 04:26:21;;;;;;;;;;;;;;;20.42;46.18;103108.47;5050305;28;2746;-58
2023/01/25 04:28:52;;;;;;;;;;;;;;;20.42;46.06;103111.34;5051257;28;2781;-60
2023/01/25 04:31:19;;;;;;;;;;;;;;;20.42;46.01;103105.59;5054199;28;2759;-58
2023/01/25 04:33:46;;;;;;;;;;;;;;;20.42;46.07;103099.09;5055070;28;2936;-58
2023/01/25 04:36:17;;;;;;;;;;;;;;;20.42;46.05;103105.59;5058605;28;2775;-59
2023/01/25 04:38:43;;;;;;;;;;;;;;;20.43;46.03;103106.34;5056089;28;2957;-58
2023/01/25 04:41:10;;;;;;;;;;;;;;;20.43;45.98;103104.25;5052916;28;2938;-58
2023/01/25 04:43:37;;;;;;;;;;;;;;;20.43;46.05;103095.63;5051951;28;2567;-58
2023/01/25 04:46:08;;;;;;;;;;;;;;;20.43;46.14;103094.84;5062539;28;3020;-58
2023/01/25 04:48:34;;;;;;;;;;;;;;;20.42;46.00;103082.56;5047034;28;2828;-58
2023/01/25 04:51:03;;;;;;;;;;;;;;;20.41;45.89;103089.69;5074080;28;3002;-58
2023/01/25 04:53:31;;;;;;;;;;;;;;;20.42;46.09;103076.81;5051813;28;2657;-58
2023/01/25 04:55:59;;;;;;;;;;;;;;;20.42;45.97;103082.56;5048807;28;2888;-59
2023/01/25 04:58:30;;;;;;;;;;;;;;;20.42;46.06;103073.94;5059684;28;2911;-58
2023/01/25 05:01:00;;;;;;;;;;;;;;;20.42;46.12;103071.06;5053337;28;2843;-58
2023/01/25 05:03:27;;;;;;;;;;;;;;;20.42;46.22;103071.06;5053792;28;2815;-58
2023/01/25 05:05:53;;;;;;;;;;;;;;;20.44;46.08;103076.25;5049205;28;2968;-59
2023/01/25 05:08:22;;;;;;;;;;;;;;;20.45;46.01;103075.63;5065612;28;2846;-58
2023/01/25 05:10:51;;;;;;;;;;;;;;;20.45;46.01;103064.09;5062150;28;2757;-58
2023/01/25 05:13:36;;;;;;;;;;;;;;;20.46;45.96;103064.91;5056267;28;2914;-59
2023/01/25 05:16:12;;;;;;;;;;;;;;;20.45;45.93;103064.09;5056678;28;2897;-58
2023/01/25 05:18:38;;;;;;;;;;;;;;;20.46;45.89;103057.00;5052718;28;2870;-58
2023/01/25 05:24:04;;;;;;;;;;;;;;;20.45;46.20;103049.72;5057312;28;2367;-58
2023/01/25 05:29:17;;;;;;;;;;;;;;;20.44;46.06;103056.84;5063449;28;1679;-58
2023/01/25 05:31:55;;;;;;;;;;;;;;;20.44;46.11;103045.34;5065574;28;2876;-58
2023/01/25 05:34:21;;;;;;;;;;;;;;;20.44;46.00;103053.22;5060203;28;2860;-58
2023/01/25 05:36:48;;;;;;;;;;;;;;;20.44;46.11;103053.22;5055996;28;2529;-58
2023/01/25 05:39:15;;;;;;;;;;;;;;;20.45;46.05;103052.59;5046133;28;3069;-59
2023/01/25 05:41:43;;;;;;;;;;;;;;;20.45;46.04;103052.59;5048037;28;2903;-58
2023/01/25 05:44:10;;;;;;;;;;;;;;;20.45;45.91;103057.59;5054955;28;2849;-58
2023/01/25 05:46:39;;;;;;;;;;;;;;;20.46;45.93;103059.88;5061830;28;2819;-58
2023/01/25 05:49:05;;;;;;;;;;;;;;;20.46;45.96;103048.38;5051186;28;3183;-59
2023/01/25 05:51:32;;;;;;;;;;;;;;;20.45;46.13;103046.84;5059629;28;3316;-58
2023/01/25 05:54:00;;;;;;;;;;;;;;;20.46;46.09;103047.63;5049885;28;3370;-58
2023/01/25 05:56:26;;;;;;;;;;;;;;;20.45;45.93;103049.72;5048400;28;3342;-58
2023/01/25 05:58:53;;;;;;;;;;;;;;;20.44;46.08;103036.69;5047954;28;3394;-58
2023/01/25 06:01:20;;;;;;;;;;;;;;;20.44;45.99;103038.81;5065828;28;3373;-58
2023/01/25 06:03:51;;;;;;;;;;;;;;;20.44;45.99;103033.81;5066951;28;3612;-58
2023/01/25 06:06:17;;;;;;;;;;;;;;;20.44;45.96;103025.19;5059929;28;2999;-58
2023/01/25 06:08:44;;;;;;;;;;;;;;;20.46;45.93;103030.34;5054260;28;2611;-58
2023/01/25 06:11:12;;;;;;;;;;;;;;;20.47;45.96;103026.84;5061228;28;3223;-58
2023/01/25 06:13:42;;;;;;;;;;;;;;;20.46;46.06;103036.88;5047346;28;3561;-59
2023/01/25 06:16:08;;;;;;;;;;;;;;;20.54;45.88;103038.88;5057260;28;3187;-59
2023/01/25 06:18:55;;;;;;;;;;;;;;;19.80;43.32;103036.53;5042174;28;2932;-59
2023/01/25 06:21:43;;;;;;;;;;;;;;;19.34;42.04;103039.09;5065553;28;3323;-59
2023/01/25 06:24:10;;;;;;;;;;;;;;;19.30;41.34;103030.88;5045140;28;3260;-58
2023/01/25 06:26:36;;;;;;;;;;;;;;;19.93;42.33;103035.44;5036195;28;3388;-65
2023/01/25 06:32:01;;;;;;;;;;;;;;;20.46;43.83;103031.09;5047826;28;3359;-65
2023/01/25 06:34:27;;;;;;;;;;;;;;;20.57;43.82;103034.81;5036724;28;3116;-66
2023/01/25 06:36:54;;;;;;;;;;;;;;;20.64;43.99;103046.25;5046107;28;3108;-64
2023/01/25 06:39:20;;;;;;;;;;;;;;;20.70;44.28;103035.19;5045472;28;2957;-65
2023/01/25 06:41:47;;;;;;;;;;;;;;;20.71;44.16;103033.09;5050704;28;4424;-65
2023/01/25 06:44:13;;;;;;;;;;;;;;;20.63;44.15;103032.44;5048446;28;2872;-66
2023/01/25 06:46:39;;;;;;;;;;;;;;;20.59;44.80;103032.88;5052420;28;2931;-66
2023/01/25 06:49:06;;;;;;;;;;;;;;;20.52;44.80;103025.06;5047545;28;3362;-65
2023/01/25 06:51:32;;;;;;;;;;;;;;;19.47;41.94;103027.28;5040862;28;3074;-69
2023/01/25 06:54:17;;;;;;;;;;;;;;;19.83;42.07;103020.22;5038949;28;3085;-67
2023/01/25 06:57:16;;;;;;;;;;;;;;;19.57;42.92;103025.25;5045536;28;3084;-67
2023/01/25 06:59:43;;;;;;;;;;;;;;;19.01;41.73;103016.19;5052938;28;2848;-67
2023/01/25 07:02:13;;;;;;;;;;;;;;;18.99;40.73;103008.16;5045827;28;2903;-67
2023/01/25 07:04:39;;;;;;;;;;;;;;;19.58;39.62;103000.13;5052573;28;3395;-68
2023/01/25 07:07:08;;;;;;;;;;;;;;;19.95;39.42;103000.31;5050772;28;3045;-68
2023/01/25 07:09:35;;;;;;;;;;;;;;;20.16;40.66;102991.22;5050484;28;3038;-67
2023/01/25 07:12:03;;;;;;;;;;;;;;;20.37;42.38;102994.41;5050453;28;3010;-65
2023/01/25 07:14:30;;;;;;;;;;;;;;;20.81;42.55;103002.22;5049733;28;2994;-62
2023/01/25 07:16:56;;;;;;;;;;;;;;;20.95;42.88;102996.03;5057848;28;3117;-64
2023/01/25 07:19:22;;;;;;;;;;;;;;;21.04;42.67;102989.56;5055602;28;3999;-63
2023/01/25 07:21:49;;;;;;;;;;;;;;;21.09;42.58;102997.13;5060962;28;3627;-61
2023/01/25 07:24:16;;;;;;;;;;;;;;;21.06;42.56;102986.84;5054907;28;2577;-65
2023/01/25 07:26:42;;;;;;;;;;;;;;;21.06;42.69;102986.84;5057810;28;3010;-62
2023/01/25 07:29:12;;;;;;;;;;;;;;;21.10;42.70;102981.38;5059240;28;2991;-61
2023/01/25 07:31:39;;;;;;;;;;;;;;;21.10;42.84;102990.03;5059528;28;3013;-64
2023/01/25 07:34:06;;;;;;;;;;;;;;;21.13;43.01;102980.94;5057039;28;3092;-62
2023/01/25 07:36:32;;;;;;;;;;;;;;;21.16;42.81;102984.72;5051161;28;3094;-63
2023/01/25 07:38:58;;;;;;;;;;;;;;;21.25;42.90;102977.47;5044725;28;4561;-69
2023/01/25 07:41:25;;;;;;;;;;;;;;;21.25;42.78;102978.22;5049362;28;3157;-69
2023/01/25 07:43:51;;;;;;;;;;;;;;;21.20;43.33;102985.03;5053717;28;3116;-66
2023/01/25 07:46:28;;;;;;;;;;;;;;;21.26;43.21;102971.09;5044132;28;3059;-68
2023/01/25 07:48:54;;;;;;;;;;;;;;;21.31;43.22;102967.16;5051765;28;3065;-66
2023/01/25 07:51:21;;;;;;;;;;;;;;;21.29;43.36;102964.13;5056864;28;3055;-68
2023/01/25 07:53:51;;;;;;;;;;;;;;;21.18;43.40;102963.97;5048598;28;2993;-65
2023/01/25 07:56:18;;;;;;;;;;;;;;;21.17;43.64;102963.19;5045233;28;3125;-66
2023/01/25 07:58:44;;;;;;;;;;;;;;;21.19;43.83;102969.13;5049626;28;3727;-69
2023/01/25 08:01:15;;;;;;;;;;;;;;;21.05;43.56;102962.25;5052376;28;3102;-65
2023/01/25 08:03:42;;;;;;;;;;;;;;;21.18;43.22;102955.31;5053258;28;4857;-64
2023/01/25 08:06:09;;;;;;;;;;;;;;;21.25;43.41;102951.53;5057170;28;3073;-65
2023/01/25 08:08:37;;;;;;;;;;;;;;;21.21;43.50;102957.75;5055090;28;3060;-65
2023/01/25 08:11:08;;;;;;;;;;;;;;;21.28;43.53;102951.09;5050384;28;3014;-65
2023/01/25 08:13:34;;;;;;;;;;;;;;;21.30;43.71;102954.13;5043523;28;3281;-65
2023/01/25 08:16:00;;;;;;;;;;;;;;;21.39;43.70;102951.84;5057487;28;3486;-64
2023/01/25 08:18:27;;;;;;;;;;;;;;;21.45;43.89;102949.47;5057898;28;3048;-64
2023/01/25 08:20:56;;;;;;;;;;;;;;;21.49;43.44;102938.22;5058358;28;3061;-65
2023/01/25 08:23:23;;;;;;;;;;;;;;;21.20;44.09;102949.72;5052275;28;4615;-65
2023/01/25 08:25:50;;;;;;;;;;;;;;;21.04;44.48;102946.34;5050587;28;3193;-65
2023/01/25 08:28:16;;;;;;;;;;;;;;;20.98;44.54;102940.88;5054538;28;2756;-65
2023/01/25 08:30:42;;;;;;;;;;;;;;;20.93;44.77;102948.44;5057264;28;2922;-64
2023/01/25 08:33:22;;;;;;;;;;;;;;;20.91;44.56;102948.28;5057076;28;2995;-64
2023/01/25 08:35:58;;;;;;;;;;;;;;;20.89;44.78;102945.25;5060430;28;1732;-64
2023/01/25 08:38:24;;;;;;;;;;;;;;;20.87;44.75;102945.09;5055313;28;2646;-64
2023/01/25 08:40:50;;;;;;;;;;;;;;;20.85;44.77;102950.69;5055070;28;2320;-65
2023/01/25 08:43:17;;;;;;;;;;;;;;;20.85;44.93;102939.16;5054053;28;3049;-65
2023/01/25 08:45:43;;;;;;;;;;;;;;;20.83;44.96;102936.13;5047839;28;4422;-64
2023/01/25 08:48:14;;;;;;;;;;;;;;;20.84;44.82;102934.75;5045815;28;2340;-65
2023/01/25 08:50:46;;;;;;;;;;;;;;;20.85;44.93;102926.91;5056731;28;2345;-65
2023/01/25 08:53:12;;;;;;;;;;;;;;;20.84;45.10;102934.75;5053672;28;2994;-65
2023/01/25 08:55:41;;;;;;;;;;;;;;;20.88;44.83;102929.31;5057319;28;3168;-65
2023/01/25 08:58:12;;;;;;;;;;;;;;;20.89;44.97;102925.09;5053787;28;2599;-65
2023/01/25 09:00:38;;;;;;;;;;;;;;;20.89;44.91;102927.97;5052599;28;2943;-65
2023/01/25 09:03:05;;;;;;;;;;;;;;;20.88;45.19;102925.69;5050368;28;4327;-65
2023/01/25 09:05:38;;;;;;;;;;;;;;;20.86;45.05;102923.41;5055825;28;4064;-65
2023/01/25 09:08:04;;;;;;;;;;;;;;;20.84;45.04;102923.25;5054489;28;2891;-65
2023/01/25 09:10:33;;;;;;;;;;;;;;;20.84;45.23;102923.25;5054904;28;2973;-65
2023/01/25 09:13:02;;;;;;;;;;;;;;;20.83;45.03;102927.50;5049824;28;3093;-66
2023/01/25 09:15:29;;;;;;;;;;;;;;;20.85;45.10;102924.78;5046876;28;4570;-65
2023/01/25 09:17:55;;;;;;;;;;;;;;;20.84;44.96;102914.59;5045493;28;3687;-65
2023/01/25 09:20:21;;;;;;;;;;;;;;;20.84;44.91;102923.25;5048742;28;4665;-65
2023/01/25 09:22:48;;;;;;;;;;;;;;;20.84;45.11;102926.13;5056085;28;2855;-65
2023/01/25 09:25:14;;;;;;;;;;;;;;;20.84;44.98;102929.00;5052618;28;2966;-66
2023/01/25 09:27:40;;;;;;;;;;;;;;;20.84;45.01;102923.25;5044229;28;4577;-65
2023/01/25 09:30:07;;;;;;;;;;;;;;;20.92;45.72;102918.13;5047555;28;5136;-66
2023/01/25 09:32:42;;;;;;;;;;;;;;;21.20;45.18;102921.66;5048286;28;4733;-66
2023/01/25 09:35:08;;;;;;;;;;;;;;;21.21;44.82;102911.66;5049281;28;4840;-66
2023/01/25 09:37:35;;;;;;;;;;;;;;;21.25;44.67;102914.81;5049560;28;4471;-67
2023/01/25 09:40:02;;;;;;;;;;;;;;;21.24;44.65;102916.19;5053921;28;3020;-63
2023/01/25 09:42:31;;;;;;;;;;;;;;;21.27;44.67;102908.47;5058458;28;2454;-63
2023/01/25 09:45:11;;;;;;;;;;;;;;;21.27;44.22;102897.69;5051618;28;3031;-65
2023/01/25 09:47:48;;;;;;;;;;;;;;;21.27;44.30;102897.69;5048801;28;4539;-64
2023/01/25 09:50:32;;;;;;;;;;;;;;;21.33;44.18;102888.75;5047534;28;3457;-65
2023/01/25 09:53:03;;;;;;;;;;;;;;;21.20;44.71;102892.06;5046845;28;3276;-65
2023/01/25 09:55:29;;;;;;;;;;;;;;;21.20;44.49;102887.06;5049641;28;3346;-64
2023/01/25 09:57:59;;;;;;;;;;;;;;;21.22;44.58;102890.09;5053232;28;3774;-64
2023/01/25 10:00:31;;;;;;;;;;;;;;;21.23;44.67;102885.84;5050102;28;3043;-65
2023/01/25 10:03:06;;;;;;;;;;;;;;;21.21;44.30;102882.06;5048491;28;3049;-65
2023/01/25 10:05:36;;;;;;;;;;;;;;;21.24;44.29;102881.63;5047469;28;3161;-65
2023/01/25 10:08:07;;;;;;;;;;;;;;;21.19;44.73;102868.28;5046017;28;3212;-65
2023/01/25 10:10:41;;;;;;;;;;;;;;;21.11;44.92;102879.19;5049007;28;2969;-65
2023/01/25 10:13:10;;;;;;;;;;;;;;;21.11;44.82;102876.28;5046104;28;3026;-65
2023/01/25 10:15:38;;;;;;;;;;;;;;;21.21;44.14;102865.53;5052676;28;3016;-66
2023/01/25 10:18:19;;;;;;;;;;;;;;;21.27;44.08;102857.34;5051846;28;2824;-66
2023/01/25 10:20:48;;;;;;;;;;;;;;;21.25;44.01;102854.31;5049728;28;3146;-65
2023/01/25 10:23:23;;;;;;;;;;;;;;;21.32;44.26;102853.38;5044904;28;3009;-65
2023/01/25 10:25:55;;;;;;;;;;;;;;;21.25;44.26;102850.66;5043666;28;3378;-65
2023/01/25 10:28:24;;;;;;;;;;;;;;;21.29;44.37;102850.97;5046977;28;4614;-66
2023/01/25 10:30:55;;;;;;;;;;;;;;;21.20;44.90;102840.97;5052439;28;3146;-66
2023/01/25 10:33:22;;;;;;;;;;;;;;;21.19;44.79;102845.22;5049498;28;3113;-66
2023/01/25 10:35:48;;;;;;;;;;;;;;;21.21;44.78;102854.03;5049483;28;3412;-66
2023/01/25 10:38:19;;;;;;;;;;;;;;;21.31;44.30;102834.59;5052036;28;3606;-66
2023/01/25 10:40:47;;;;;;;;;;;;;;;21.30;44.23;102829.44;5051425;28;3166;-66
2023/01/25 10:43:17;;;;;;;;;;;;;;;21.32;43.91;102821.69;5047315;28;3899;-66
2023/01/25 10:45:43;;;;;;;;;;;;;;;21.31;43.99;102817.31;5048926;28;3635;-65
2023/01/25 10:48:11;;;;;;;;;;;;;;;21.31;43.99;102820.19;5054011;28;3739;-66
2023/01/25 10:50:37;;;;;;;;;;;;;;;21.45;44.02;102819.75;5044804;28;4104;-67
2023/01/25 10:53:04;;;;;;;;;;;;;;;21.42;43.80;102809.44;5046462;28;3614;-68
2023/01/25 10:55:30;;;;;;;;;;;;;;;21.44;43.88;102810.34;5046463;28;3690;-67
2023/01/25 10:57:56;;;;;;;;;;;;;;;21.44;43.84;102807.47;5047373;28;3789;-66
2023/01/25 11:00:25;;;;;;;;;;;;;;;21.44;43.87;102806.69;5042212;28;3303;-67
2023/01/25 11:02:55;;;;;;;;;;;;;;;21.38;43.77;102801.22;5045982;28;3559;-67
2023/01/25 11:05:34;;;;;;;;;;;;;;;21.28;43.82;102792.59;5047619;28;3070;-67
2023/01/25 11:08:20;;;;;;;;;;;;;;;21.34;44.06;102793.00;5045651;28;3711;-68
2023/01/25 11:10:46;;;;;;;;;;;;;;;21.38;44.08;102783.16;5048253;28;3319;-78
2023/01/25 11:13:12;;;;;;;;;;;;;;;21.43;43.92;102790.75;5044674;28;3701;-75
2023/01/25 11:15:39;;;;;;;;;;;;;;;21.51;43.96;102780.59;5048916;28;3678;-76
2023/01/25 11:18:06;;;;;;;;;;;;;;;21.58;43.62;102776.03;5049796;28;3613;-78
2023/01/25 11:20:32;;;;;;;;;;;;;;;21.67;43.15;102778.13;5045558;28;3208;-78
2023/01/25 11:22:58;;;;;;;;;;;;;;;21.66;43.27;102767.19;5045650;28;3686;-79
2023/01/25 11:25:26;;;;;;;;;;;;;;;21.66;43.32;102765.06;5046062;28;2977;-75
2023/01/25 11:28:08;;;;;;;;;;;;;;;21.64;43.19;102764.91;5049796;28;3177;-67
2023/01/25 11:30:34;;;;;;;;;;;;;;;21.41;43.31;102748.13;5046585;28;3521;-68
2023/01/25 11:33:01;;;;;;;;;;;;;;;21.38;43.50;102752.22;5045875;28;3626;-68
2023/01/25 11:35:30;;;;;;;;;;;;;;;21.36;43.78;102759.97;5053631;28;2919;-67
2023/01/25 11:38:07;;;;;;;;;;;;;;;21.40;43.78;102749.50;5056697;28;3885;-67
2023/01/25 11:40:37;;;;;;;;;;;;;;;21.42;43.73;102746.03;5057390;28;3796;-67
2023/01/25 11:43:22;;;;;;;;;;;;;;;21.45;43.82;102734.03;5058576;28;2729;-69
2023/01/25 11:45:52;;;;;;;;;;;;;;;21.52;43.27;102717.91;5057568;28;3025;-69
2023/01/25 11:48:18;;;;;;;;;;;;;;;21.34;43.94;102711.56;5034074;28;4731;-69
2023/01/25 11:50:46;;;;;;;;;;;;;;;21.29;44.07;102707.66;5047745;28;3338;-69
2023/01/25 11:53:22;;;;;;;;;;;;;;;21.25;44.28;102709.47;5040873;28;3964;-69
2023/01/25 11:55:53;;;;;;;;;;;;;;;21.25;44.44;102701.59;5055313;28;3705;-69
2023/01/25 11:58:35;;;;;;;;;;;;;;;21.40;44.25;102696.84;5045592;28;4427;-69
2023/01/25 12:01:10;;;;;;;;;;;;;;;21.37;44.08;102686.53;5051214;28;4447;-68
2023/01/25 12:03:36;;;;;;;;;;;;;;;21.42;44.07;102683.38;5048789;28;3372;-67
2023/01/25 12:06:16;;;;;;;;;;;;;;;21.42;43.69;102683.38;5053805;28;3456;-67
2023/01/25 12:09:01;;;;;;;;;;;;;;;21.44;43.94;102679.84;5054148;28;3668;-68
2023/01/25 12:11:33;;;;;;;;;;;;;;;21.42;43.76;102673.97;5055856;28;3760;-67
2023/01/25 12:14:04;;;;;;;;;;;;;;;21.40;43.79;102668.81;5053237;28;3700;-66
2023/01/25 12:16:43;;;;;;;;;;;;;;;21.40;43.68;102653.63;5049564;28;3491;-68
2023/01/25 12:19:28;;;;;;;;;;;;;;;21.40;43.76;102647.88;5046128;28;3722;-67
2023/01/25 12:22:13;;;;;;;;;;;;;;;21.45;43.60;102633.13;5049590;28;3598;-68
2023/01/25 12:24:51;;;;;;;;;;;;;;;21.43;43.60;102627.22;5050297;28;3250;-69
2023/01/25 12:27:43;;;;;;;;;;;;;;;21.47;43.47;102632.53;5043791;28;4152;-66
2023/01/25 12:30:10;;;;;;;;;;;;;;;21.48;43.32;102622.50;5032583;28;3835;-67
2023/01/25 12:32:38;;;;;;;;;;;;;;;21.49;43.38;102609.63;5053153;28;3666;-68
2023/01/25 12:35:23;;;;;;;;;;;;;;;21.48;43.64;102610.97;5048602;28;2888;-69
2023/01/25 12:37:50;;;;;;;;;;;;;;;21.45;44.26;102612.22;5057600;28;3020;-69
2023/01/25 12:40:17;;;;;;;;;;;;;;;21.39;43.93;102615.38;5050778;28;3676;-69
2023/01/25 12:42:46;;;;;;;;;;;;;;;21.41;43.90;102595.38;5052529;28;3006;-67
2023/01/25 12:45:17;;;;;;;;;;;;;;;21.28;44.24;102593.75;5069317;28;3084;-67
2023/01/25 12:47:48;;;;;;;;;;;;;;;21.39;44.34;102583.69;5046859;28;2977;-67
2023/01/25 12:50:14;;;;;;;;;;;;;;;21.31;44.17;102586.00;5054926;28;2880;-67
2023/01/25 12:53:01;;;;;;;;;;;;;;;21.38;44.19;102590.06;5055743;28;2982;-68
2023/01/25 12:55:27;;;;;;;;;;;;;;;21.45;44.16;102589.16;5053043;28;2915;-65
2023/01/25 12:58:10;;;;;;;;;;;;;;;21.44;44.19;102582.63;5050814;28;2725;-67
2023/01/25 13:00:45;;;;;;;;;;;;;;;21.48;44.17;102579.25;5053114;28;2879;-67
2023/01/25 13:03:32;;;;;;;;;;;;;;;21.45;44.38;102572.59;5053420;28;2851;-67
2023/01/25 13:06:01;;;;;;;;;;;;;;;21.58;43.70;102579.97;5060211;28;2918;-72
2023/01/25 13:08:36;;;;;;;;;;;;;;;21.44;43.99;102578.97;5051500;28;2939;-67
2023/01/25 13:11:06;;;;;;;;;;;;;;;21.32;44.01;102570.97;5045386;28;3158;-68